sensor_id;sensor_type;location;lat;lon;timestamp;P1;durP1;ratioP1;P2;durP2;ratioP2
6388;SDS011;3227;42.654;23.360;2023-02-28T00:01:18;18.60;;;12.37;;
6388;SDS011;3227;42.654;23.360;2023-02-28T00:03:45;20.03;;;12.50;;
6388;SDS011;3227;42.654;23.360;2023-02-28T00:06:12;21.10;;;12.67;;
6388;SDS011;3227;42.654;23.360;2023-02-28T00:08:39;18.50;;;13.20;;
6388;SDS011;3227;42.654;23.360;2023-02-28T00:11:07;25.47;;;13.97;;
6388;SDS011;3227;42.654;23.360;2023-02-28T00:13:37;23.67;;;13.13;;
6388;SDS011;3227;42.654;23.360;2023-02-28T00:16:07;21.90;;;13.80;;
6388;SDS011;3227;42.654;23.360;2023-02-28T00:18:35;21.57;;;13.83;;
6388;SDS011;3227;42.654;23.360;2023-02-28T00:21:02;20.73;;;13.33;;
6388;SDS011;3227;42.654;23.360;2023-02-28T00:23:29;21.53;;;13.37;;
6388;SDS011;3227;42.654;23.360;2023-02-28T00:25:56;19.83;;;12.40;;
6388;SDS011;3227;42.654;23.360;2023-02-28T00:28:23;20.47;;;13.07;;
6388;SDS011;3227;42.654;23.360;2023-02-28T00:30:52;18.70;;;11.60;;
6388;SDS011;3227;42.654;23.360;2023-02-28T00:33:19;17.70;;;11.50;;
6388;SDS011;3227;42.654;23.360;2023-02-28T00:35:46;18.80;;;12.20;;
6388;SDS011;3227;42.654;23.360;2023-02-28T00:38:14;22.03;;;12.87;;
6388;SDS011;3227;42.654;23.360;2023-02-28T00:40:41;22.47;;;12.70;;
6388;SDS011;3227;42.654;23.360;2023-02-28T00:43:08;22.17;;;12.87;;
6388;SDS011;3227;42.654;23.360;2023-02-28T00:45:34;20.87;;;12.77;;
6388;SDS011;3227;42.654;23.360;2023-02-28T00:48:03;20.17;;;12.60;;
6388;SDS011;3227;42.654;23.360;2023-02-28T00:50:31;24.17;;;13.77;;
6388;SDS011;3227;42.654;23.360;2023-02-28T00:52:58;20.77;;;13.33;;
6388;SDS011;3227;42.654;23.360;2023-02-28T00:55:24;22.10;;;13.20;;
6388;SDS011;3227;42.654;23.360;2023-02-28T00:57:51;21.87;;;13.67;;
6388;SDS011;3227;42.654;23.360;2023-02-28T01:00:18;23.23;;;13.63;;
6388;SDS011;3227;42.654;23.360;2023-02-28T01:02:45;21.33;;;13.27;;
6388;SDS011;3227;42.654;23.360;2023-02-28T01:05:13;24.57;;;13.03;;
6388;SDS011;3227;42.654;23.360;2023-02-28T01:07:40;21.60;;;13.40;;
6388;SDS011;3227;42.654;23.360;2023-02-28T01:10:08;23.10;;;13.90;;
6388;SDS011;3227;42.654;23.360;2023-02-28T01:12:35;20.30;;;13.43;;
6388;SDS011;3227;42.654;23.360;2023-02-28T01:15:02;24.37;;;13.90;;
6388;SDS011;3227;42.654;23.360;2023-02-28T01:17:30;23.83;;;14.63;;
6388;SDS011;3227;42.654;23.360;2023-02-28T01:19:57;23.83;;;14.20;;
6388;SDS011;3227;42.654;23.360;2023-02-28T01:22:25;22.60;;;15.03;;
6388;SDS011;3227;42.654;23.360;2023-02-28T01:24:52;26.17;;;16.23;;
6388;SDS011;3227;42.654;23.360;2023-02-28T01:27:19;28.43;;;16.53;;
6388;SDS011;3227;42.654;23.360;2023-02-28T01:29:45;27.77;;;18.07;;
6388;SDS011;3227;42.654;23.360;2023-02-28T01:32:12;27.57;;;17.60;;
6388;SDS011;3227;42.654;23.360;2023-02-28T01:34:39;26.43;;;17.70;;
6388;SDS011;3227;42.654;23.360;2023-02-28T01:37:06;29.13;;;19.03;;
6388;SDS011;3227;42.654;23.360;2023-02-28T01:39:34;30.07;;;17.83;;
6388;SDS011;3227;42.654;23.360;2023-02-28T01:42:01;26.93;;;17.77;;
6388;SDS011;3227;42.654;23.360;2023-02-28T01:47:33;26.20;;;15.87;;
6388;SDS011;3227;42.654;23.360;2023-02-28T01:50:04;26.07;;;16.47;;
6388;SDS011;3227;42.654;23.360;2023-02-28T01:52:34;25.93;;;16.37;;
6388;SDS011;3227;42.654;23.360;2023-02-28T01:55:02;26.10;;;16.43;;
6388;SDS011;3227;42.654;23.360;2023-02-28T01:57:32;27.10;;;17.87;;
6388;SDS011;3227;42.654;23.360;2023-02-28T02:00:05;26.20;;;16.80;;
6388;SDS011;3227;42.654;23.360;2023-02-28T02:02:38;27.70;;;17.40;;
6388;SDS011;3227;42.654;23.360;2023-02-28T02:05:07;25.10;;;16.17;;
6388;SDS011;3227;42.654;23.360;2023-02-28T02:07:36;27.20;;;17.07;;
6388;SDS011;3227;42.654;23.360;2023-02-28T02:10:11;28.13;;;17.23;;
6388;SDS011;3227;42.654;23.360;2023-02-28T02:15:32;25.57;;;16.93;;
6388;SDS011;3227;42.654;23.360;2023-02-28T02:18:02;24.00;;;15.77;;
6388;SDS011;3227;42.654;23.360;2023-02-28T02:20:44;25.77;;;16.20;;
6388;SDS011;3227;42.654;23.360;2023-02-28T02:23:28;26.80;;;17.23;;
6388;SDS011;3227;42.654;23.360;2023-02-28T02:26:15;25.47;;;16.80;;
6388;SDS011;3227;42.654;23.360;2023-02-28T02:32:08;21.57;;;14.87;;
6388;SDS011;3227;42.654;23.360;2023-02-28T02:35:02;28.30;;;17.30;;
6388;SDS011;3227;42.654;23.360;2023-02-28T02:37:38;29.00;;;15.47;;
6388;SDS011;3227;42.654;23.360;2023-02-28T02:40:11;25.37;;;15.97;;
6388;SDS011;3227;42.654;23.360;2023-02-28T02:42:44;25.07;;;16.23;;
6388;SDS011;3227;42.654;23.360;2023-02-28T02:45:19;24.67;;;15.07;;
6388;SDS011;3227;42.654;23.360;2023-02-28T02:47:52;24.57;;;16.60;;
6388;SDS011;3227;42.654;23.360;2023-02-28T02:50:23;25.13;;;15.93;;
6388;SDS011;3227;42.654;23.360;2023-02-28T02:52:54;25.20;;;16.63;;
6388;SDS011;3227;42.654;23.360;2023-02-28T02:55:23;26.83;;;17.07;;
6388;SDS011;3227;42.654;23.360;2023-02-28T02:57:52;30.50;;;17.97;;
6388;SDS011;3227;42.654;23.360;2023-02-28T03:00:22;29.27;;;19.13;;
6388;SDS011;3227;42.654;23.360;2023-02-28T03:02:52;27.33;;;17.40;;
6388;SDS011;3227;42.654;23.360;2023-02-28T03:05:23;28.27;;;17.63;;
6388;SDS011;3227;42.654;23.360;2023-02-28T03:07:52;27.60;;;16.57;;
6388;SDS011;3227;42.654;23.360;2023-02-28T03:10:26;27.70;;;17.67;;
6388;SDS011;3227;42.654;23.360;2023-02-28T03:13:11;26.50;;;17.57;;
6388;SDS011;3227;42.654;23.360;2023-02-28T03:16:03;24.07;;;16.90;;
6388;SDS011;3227;42.654;23.360;2023-02-28T03:18:43;27.83;;;16.97;;
6388;SDS011;3227;42.654;23.360;2023-02-28T03:21:21;31.50;;;18.33;;
6388;SDS011;3227;42.654;23.360;2023-02-28T03:23:54;32.97;;;18.17;;
6388;SDS011;3227;42.654;23.360;2023-02-28T03:26:29;28.77;;;18.13;;
6388;SDS011;3227;42.654;23.360;2023-02-28T03:29:01;29.10;;;17.73;;
6388;SDS011;3227;42.654;23.360;2023-02-28T03:31:32;27.47;;;17.90;;
6388;SDS011;3227;42.654;23.360;2023-02-28T03:34:04;31.80;;;18.77;;
6388;SDS011;3227;42.654;23.360;2023-02-28T03:36:37;30.73;;;18.87;;
6388;SDS011;3227;42.654;23.360;2023-02-28T03:39:11;32.33;;;19.73;;
6388;SDS011;3227;42.654;23.360;2023-02-28T03:41:43;32.97;;;19.43;;
6388;SDS011;3227;42.654;23.360;2023-02-28T03:44:15;29.40;;;19.20;;
6388;SDS011;3227;42.654;23.360;2023-02-28T03:46:46;32.67;;;19.87;;
6388;SDS011;3227;42.654;23.360;2023-02-28T03:49:20;36.83;;;21.23;;
6388;SDS011;3227;42.654;23.360;2023-02-28T03:51:52;38.00;;;21.10;;
6388;SDS011;3227;42.654;23.360;2023-02-28T03:54:23;41.47;;;22.70;;
6388;SDS011;3227;42.654;23.360;2023-02-28T03:56:57;36.13;;;22.27;;
6388;SDS011;3227;42.654;23.360;2023-02-28T03:59:30;36.97;;;21.50;;
6388;SDS011;3227;42.654;23.360;2023-02-28T04:02:01;42.03;;;22.23;;
6388;SDS011;3227;42.654;23.360;2023-02-28T04:04:28;38.67;;;21.07;;
6388;SDS011;3227;42.654;23.360;2023-02-28T04:07:01;35.70;;;20.43;;
6388;SDS011;3227;42.654;23.360;2023-02-28T04:09:30;38.77;;;20.43;;
6388;SDS011;3227;42.654;23.360;2023-02-28T04:11:57;38.10;;;18.73;;
6388;SDS011;3227;42.654;23.360;2023-02-28T04:14:24;41.90;;;20.10;;
6388;SDS011;3227;42.654;23.360;2023-02-28T04:16:51;38.13;;;20.43;;
6388;SDS011;3227;42.654;23.360;2023-02-28T04:19:18;52.60;;;17.57;;
6388;SDS011;3227;42.654;23.360;2023-02-28T04:21:45;31.13;;;18.23;;
6388;SDS011;3227;42.654;23.360;2023-02-28T04:24:15;31.50;;;17.97;;
6388;SDS011;3227;42.654;23.360;2023-02-28T04:26:44;34.03;;;18.57;;
6388;SDS011;3227;42.654;23.360;2023-02-28T04:29:13;32.93;;;18.70;;
6388;SDS011;3227;42.654;23.360;2023-02-28T04:31:44;36.70;;;20.33;;
6388;SDS011;3227;42.654;23.360;2023-02-28T04:34:11;31.87;;;18.37;;
6388;SDS011;3227;42.654;23.360;2023-02-28T04:36:37;31.07;;;18.17;;
6388;SDS011;3227;42.654;23.360;2023-02-28T04:39:04;34.47;;;19.07;;
6388;SDS011;3227;42.654;23.360;2023-02-28T04:41:32;34.63;;;19.00;;
6388;SDS011;3227;42.654;23.360;2023-02-28T04:43:59;33.73;;;18.83;;
6388;SDS011;3227;42.654;23.360;2023-02-28T04:46:26;28.50;;;17.30;;
6388;SDS011;3227;42.654;23.360;2023-02-28T04:48:53;31.67;;;18.73;;
6388;SDS011;3227;42.654;23.360;2023-02-28T04:51:20;33.07;;;19.37;;
6388;SDS011;3227;42.654;23.360;2023-02-28T04:53:47;38.60;;;19.73;;
6388;SDS011;3227;42.654;23.360;2023-02-28T04:56:15;35.63;;;19.93;;
6388;SDS011;3227;42.654;23.360;2023-02-28T04:58:44;37.97;;;20.40;;
6388;SDS011;3227;42.654;23.360;2023-02-28T05:01:16;37.67;;;22.63;;
6388;SDS011;3227;42.654;23.360;2023-02-28T05:03:45;42.90;;;22.70;;
6388;SDS011;3227;42.654;23.360;2023-02-28T05:06:13;37.43;;;23.03;;
6388;SDS011;3227;42.654;23.360;2023-02-28T05:08:40;47.87;;;24.63;;
6388;SDS011;3227;42.654;23.360;2023-02-28T05:11:15;42.23;;;22.90;;
6388;SDS011;3227;42.654;23.360;2023-02-28T05:13:46;46.10;;;26.20;;
6388;SDS011;3227;42.654;23.360;2023-02-28T05:16:13;44.50;;;25.27;;
6388;SDS011;3227;42.654;23.360;2023-02-28T05:18:41;50.50;;;27.70;;
6388;SDS011;3227;42.654;23.360;2023-02-28T05:21:17;51.80;;;27.70;;
6388;SDS011;3227;42.654;23.360;2023-02-28T05:23:50;50.90;;;27.17;;
6388;SDS011;3227;42.654;23.360;2023-02-28T05:26:17;48.53;;;26.43;;
6388;SDS011;3227;42.654;23.360;2023-02-28T05:28:45;51.90;;;28.27;;
6388;SDS011;3227;42.654;23.360;2023-02-28T05:31:12;46.90;;;27.93;;
6388;SDS011;3227;42.654;23.360;2023-02-28T05:33:40;54.33;;;30.40;;
6388;SDS011;3227;42.654;23.360;2023-02-28T05:36:07;48.80;;;29.23;;
6388;SDS011;3227;42.654;23.360;2023-02-28T05:38:34;54.87;;;30.37;;
6388;SDS011;3227;42.654;23.360;2023-02-28T05:41:04;49.07;;;28.47;;
6388;SDS011;3227;42.654;23.360;2023-02-28T05:43:32;56.67;;;30.03;;
6388;SDS011;3227;42.654;23.360;2023-02-28T05:46:01;50.87;;;28.83;;
6388;SDS011;3227;42.654;23.360;2023-02-28T05:48:28;53.80;;;29.30;;
6388;SDS011;3227;42.654;23.360;2023-02-28T05:50:56;49.90;;;27.97;;
6388;SDS011;3227;42.654;23.360;2023-02-28T05:53:23;49.87;;;29.63;;
6388;SDS011;3227;42.654;23.360;2023-02-28T05:55:51;50.50;;;27.63;;
6388;SDS011;3227;42.654;23.360;2023-02-28T05:58:19;46.40;;;26.63;;
6388;SDS011;3227;42.654;23.360;2023-02-28T06:00:46;48.13;;;27.77;;
6388;SDS011;3227;42.654;23.360;2023-02-28T06:03:14;50.93;;;27.73;;
6388;SDS011;3227;42.654;23.360;2023-02-28T06:05:41;54.97;;;28.50;;
6388;SDS011;3227;42.654;23.360;2023-02-28T06:08:08;47.13;;;25.90;;
6388;SDS011;3227;42.654;23.360;2023-02-28T06:10:35;45.70;;;26.20;;
6388;SDS011;3227;42.654;23.360;2023-02-28T06:13:01;43.30;;;25.37;;
6388;SDS011;3227;42.654;23.360;2023-02-28T06:15:29;42.17;;;25.33;;
6388;SDS011;3227;42.654;23.360;2023-02-28T06:17:56;46.47;;;25.90;;
6388;SDS011;3227;42.654;23.360;2023-02-28T06:20:26;44.37;;;25.13;;
6388;SDS011;3227;42.654;23.360;2023-02-28T06:22:54;45.87;;;25.93;;
6388;SDS011;3227;42.654;23.360;2023-02-28T06:25:23;48.07;;;25.63;;
6388;SDS011;3227;42.654;23.360;2023-02-28T06:27:50;44.37;;;26.07;;
6388;SDS011;3227;42.654;23.360;2023-02-28T06:30:17;46.47;;;26.67;;
6388;SDS011;3227;42.654;23.360;2023-02-28T06:32:51;41.70;;;25.20;;
6388;SDS011;3227;42.654;23.360;2023-02-28T06:35:18;47.37;;;27.43;;
6388;SDS011;3227;42.654;23.360;2023-02-28T06:37:47;41.97;;;23.37;;
6388;SDS011;3227;42.654;23.360;2023-02-28T06:40:13;39.90;;;22.80;;
6388;SDS011;3227;42.654;23.360;2023-02-28T06:42:40;37.27;;;22.60;;
6388;SDS011;3227;42.654;23.360;2023-02-28T06:45:08;38.57;;;22.43;;
6388;SDS011;3227;42.654;23.360;2023-02-28T06:47:35;41.03;;;23.10;;
6388;SDS011;3227;42.654;23.360;2023-02-28T06:50:03;42.67;;;23.10;;
6388;SDS011;3227;42.654;23.360;2023-02-28T06:52:31;45.53;;;23.17;;
6388;SDS011;3227;42.654;23.360;2023-02-28T06:55:02;42.03;;;24.50;;
6388;SDS011;3227;42.654;23.360;2023-02-28T06:57:30;50.17;;;27.20;;
6388;SDS011;3227;42.654;23.360;2023-02-28T06:59:59;43.47;;;26.50;;
6388;SDS011;3227;42.654;23.360;2023-02-28T07:02:26;45.67;;;26.37;;
6388;SDS011;3227;42.654;23.360;2023-02-28T07:04:53;42.83;;;24.53;;
6388;SDS011;3227;42.654;23.360;2023-02-28T07:07:20;40.83;;;24.43;;
6388;SDS011;3227;42.654;23.360;2023-02-28T07:09:47;44.73;;;24.97;;
6388;SDS011;3227;42.654;23.360;2023-02-28T07:12:15;39.07;;;25.07;;
6388;SDS011;3227;42.654;23.360;2023-02-28T07:14:42;37.73;;;23.63;;
6388;SDS011;3227;42.654;23.360;2023-02-28T07:17:09;38.77;;;23.60;;
6388;SDS011;3227;42.654;23.360;2023-02-28T07:19:37;42.83;;;25.13;;
6388;SDS011;3227;42.654;23.360;2023-02-28T07:22:04;36.70;;;22.63;;
6388;SDS011;3227;42.654;23.360;2023-02-28T07:24:31;39.78;;;24.10;;
6388;SDS011;3227;42.654;23.360;2023-02-28T07:26:58;33.70;;;21.80;;
6388;SDS011;3227;42.654;23.360;2023-02-28T07:29:27;35.20;;;21.98;;
6388;SDS011;3227;42.654;23.360;2023-02-28T07:31:54;47.60;;;31.50;;
6388;SDS011;3227;42.654;23.360;2023-02-28T07:34:21;37.27;;;22.23;;
6388;SDS011;3227;42.654;23.360;2023-02-28T07:36:48;31.83;;;20.20;;
6388;SDS011;3227;42.654;23.360;2023-02-28T07:39:18;37.97;;;21.50;;
6388;SDS011;3227;42.654;23.360;2023-02-28T07:41:45;35.97;;;20.13;;
6388;SDS011;3227;42.654;23.360;2023-02-28T07:44:12;36.10;;;21.77;;
6388;SDS011;3227;42.654;23.360;2023-02-28T07:46:40;35.40;;;21.40;;
6388;SDS011;3227;42.654;23.360;2023-02-28T07:49:07;36.83;;;21.80;;
6388;SDS011;3227;42.654;23.360;2023-02-28T07:51:34;33.67;;;23.07;;
6388;SDS011;3227;42.654;23.360;2023-02-28T07:54:01;37.53;;;24.07;;
6388;SDS011;3227;42.654;23.360;2023-02-28T07:56:28;35.60;;;23.20;;
6388;SDS011;3227;42.654;23.360;2023-02-28T07:58:54;31.80;;;21.43;;
6388;SDS011;3227;42.654;23.360;2023-02-28T08:01:21;38.60;;;23.10;;
6388;SDS011;3227;42.654;23.360;2023-02-28T08:03:49;31.43;;;19.60;;
6388;SDS011;3227;42.654;23.360;2023-02-28T08:06:17;33.50;;;21.03;;
6388;SDS011;3227;42.654;23.360;2023-02-28T08:08:46;32.63;;;20.10;;
6388;SDS011;3227;42.654;23.360;2023-02-28T08:11:13;40.40;;;20.20;;
6388;SDS011;3227;42.654;23.360;2023-02-28T08:13:41;36.30;;;21.10;;
6388;SDS011;3227;42.654;23.360;2023-02-28T08:16:09;30.07;;;19.97;;
6388;SDS011;3227;42.654;23.360;2023-02-28T08:18:36;47.50;;;20.07;;
6388;SDS011;3227;42.654;23.360;2023-02-28T08:21:07;37.37;;;20.90;;
6388;SDS011;3227;42.654;23.360;2023-02-28T08:23:34;34.70;;;20.00;;
6388;SDS011;3227;42.654;23.360;2023-02-28T08:26:01;37.70;;;20.03;;
6388;SDS011;3227;42.654;23.360;2023-02-28T08:28:28;41.60;;;21.53;;
6388;SDS011;3227;42.654;23.360;2023-02-28T08:30:55;37.50;;;22.90;;
6388;SDS011;3227;42.654;23.360;2023-02-28T08:33:22;41.22;;;23.52;;
6388;SDS011;3227;42.654;23.360;2023-02-28T08:35:51;37.85;;;21.08;;
6388;SDS011;3227;42.654;23.360;2023-02-28T08:38:20;37.53;;;17.67;;
6388;SDS011;3227;42.654;23.360;2023-02-28T08:40:47;30.03;;;17.07;;
6388;SDS011;3227;42.654;23.360;2023-02-28T08:43:13;33.10;;;17.00;;
6388;SDS011;3227;42.654;23.360;2023-02-28T08:45:40;31.80;;;18.98;;
6388;SDS011;3227;42.654;23.360;2023-02-28T08:48:07;34.07;;;15.73;;
6388;SDS011;3227;42.654;23.360;2023-02-28T08:50:34;29.53;;;16.37;;
6388;SDS011;3227;42.654;23.360;2023-02-28T08:53:00;30.40;;;16.13;;
6388;SDS011;3227;42.654;23.360;2023-02-28T08:55:29;29.33;;;15.53;;
6388;SDS011;3227;42.654;23.360;2023-02-28T08:57:55;32.73;;;17.13;;
6388;SDS011;3227;42.654;23.360;2023-02-28T09:00:23;30.67;;;16.63;;
6388;SDS011;3227;42.654;23.360;2023-02-28T09:02:50;37.33;;;20.48;;
6388;SDS011;3227;42.654;23.360;2023-02-28T09:05:16;30.47;;;16.27;;
6388;SDS011;3227;42.654;23.360;2023-02-28T09:07:43;30.38;;;17.58;;
6388;SDS011;3227;42.654;23.360;2023-02-28T09:10:10;30.17;;;15.13;;
6388;SDS011;3227;42.654;23.360;2023-02-28T09:12:38;30.90;;;16.77;;
6388;SDS011;3227;42.654;23.360;2023-02-28T09:15:06;29.87;;;15.90;;
6388;SDS011;3227;42.654;23.360;2023-02-28T09:17:38;28.73;;;15.80;;
6388;SDS011;3227;42.654;23.360;2023-02-28T09:20:06;27.50;;;16.23;;
6388;SDS011;3227;42.654;23.360;2023-02-28T09:22:34;34.27;;;16.03;;
6388;SDS011;3227;42.654;23.360;2023-02-28T09:25:00;31.58;;;18.67;;
6388;SDS011;3227;42.654;23.360;2023-02-28T09:30:31;31.38;;;18.70;;
6388;SDS011;3227;42.654;23.360;2023-02-28T09:32:58;34.60;;;17.57;;
6388;SDS011;3227;42.654;23.360;2023-02-28T09:35:25;32.72;;;19.00;;
6388;SDS011;3227;42.654;23.360;2023-02-28T09:37:52;38.23;;;20.93;;
6388;SDS011;3227;42.654;23.360;2023-02-28T09:40:20;32.72;;;19.67;;
6388;SDS011;3227;42.654;23.360;2023-02-28T09:42:50;30.55;;;18.08;;
6388;SDS011;3227;42.654;23.360;2023-02-28T09:45:21;32.10;;;17.70;;
6388;SDS011;3227;42.654;23.360;2023-02-28T09:47:51;31.17;;;18.10;;
6388;SDS011;3227;42.654;23.360;2023-02-28T09:50:22;31.00;;;17.33;;
6388;SDS011;3227;42.654;23.360;2023-02-28T09:52:58;32.00;;;17.40;;
6388;SDS011;3227;42.654;23.360;2023-02-28T09:55:28;29.60;;;17.52;;
6388;SDS011;3227;42.654;23.360;2023-02-28T09:57:59;31.05;;;17.40;;
6388;SDS011;3227;42.654;23.360;2023-02-28T10:00:30;28.02;;;16.35;;
6388;SDS011;3227;42.654;23.360;2023-02-28T10:03:17;27.45;;;17.00;;
6388;SDS011;3227;42.654;23.360;2023-02-28T10:05:54;31.90;;;16.25;;
6388;SDS011;3227;42.654;23.360;2023-02-28T10:08:30;26.03;;;13.77;;
6388;SDS011;3227;42.654;23.360;2023-02-28T10:11:00;29.98;;;15.38;;
6388;SDS011;3227;42.654;23.360;2023-02-28T10:13:33;26.03;;;12.87;;
6388;SDS011;3227;42.654;23.360;2023-02-28T10:16:05;29.37;;;14.63;;
6388;SDS011;3227;42.654;23.360;2023-02-28T10:18:38;29.77;;;14.27;;
6388;SDS011;3227;42.654;23.360;2023-02-28T10:21:14;31.80;;;15.65;;
6388;SDS011;3227;42.654;23.360;2023-02-28T10:23:46;25.40;;;14.30;;
6388;SDS011;3227;42.654;23.360;2023-02-28T10:26:16;29.73;;;13.87;;
6388;SDS011;3227;42.654;23.360;2023-02-28T10:28:51;34.00;;;13.57;;
6388;SDS011;3227;42.654;23.360;2023-02-28T10:31:20;31.50;;;14.17;;
6388;SDS011;3227;42.654;23.360;2023-02-28T10:33:47;30.30;;;15.98;;
6388;SDS011;3227;42.654;23.360;2023-02-28T10:36:15;30.25;;;15.70;;
6388;SDS011;3227;42.654;23.360;2023-02-28T10:38:45;31.47;;;14.63;;
6388;SDS011;3227;42.654;23.360;2023-02-28T10:41:13;32.17;;;15.02;;
6388;SDS011;3227;42.654;23.360;2023-02-28T10:43:42;26.23;;;13.30;;
6388;SDS011;3227;42.654;23.360;2023-02-28T10:46:11;28.87;;;13.67;;
6388;SDS011;3227;42.654;23.360;2023-02-28T10:48:59;37.77;;;13.23;;
6388;SDS011;3227;42.654;23.360;2023-02-28T10:51:33;27.50;;;14.20;;
6388;SDS011;3227;42.654;23.360;2023-02-28T10:54:02;28.97;;;13.47;;
6388;SDS011;3227;42.654;23.360;2023-02-28T10:56:30;24.07;;;13.87;;
6388;SDS011;3227;42.654;23.360;2023-02-28T10:58:58;28.27;;;14.33;;
6388;SDS011;3227;42.654;23.360;2023-02-28T11:01:34;35.30;;;15.17;;
6388;SDS011;3227;42.654;23.360;2023-02-28T11:04:05;32.73;;;16.10;;
6388;SDS011;3227;42.654;23.360;2023-02-28T11:06:43;25.83;;;15.47;;
6388;SDS011;3227;42.654;23.360;2023-02-28T11:09:15;31.70;;;14.13;;
6388;SDS011;3227;42.654;23.360;2023-02-28T11:11:49;25.37;;;14.47;;
6388;SDS011;3227;42.654;23.360;2023-02-28T11:14:19;29.90;;;16.35;;
6388;SDS011;3227;42.654;23.360;2023-02-28T11:16:48;32.70;;;16.55;;
6388;SDS011;3227;42.654;23.360;2023-02-28T11:19:18;25.30;;;14.27;;
6388;SDS011;3227;42.654;23.360;2023-02-28T11:21:52;31.47;;;15.83;;
6388;SDS011;3227;42.654;23.360;2023-02-28T11:24:23;32.72;;;16.50;;
6388;SDS011;3227;42.654;23.360;2023-02-28T11:26:52;31.08;;;15.30;;
6388;SDS011;3227;42.654;23.360;2023-02-28T11:29:25;26.42;;;14.68;;
6388;SDS011;3227;42.654;23.360;2023-02-28T11:32:12;38.55;;;15.98;;
6388;SDS011;3227;42.654;23.360;2023-02-28T11:34:43;29.43;;;14.93;;
6388;SDS011;3227;42.654;23.360;2023-02-28T11:37:16;30.10;;;16.23;;
6388;SDS011;3227;42.654;23.360;2023-02-28T11:39:45;28.87;;;14.03;;
6388;SDS011;3227;42.654;23.360;2023-02-28T11:42:29;27.97;;;14.43;;
6388;SDS011;3227;42.654;23.360;2023-02-28T11:45:12;35.97;;;17.05;;
6388;SDS011;3227;42.654;23.360;2023-02-28T11:48:04;30.50;;;18.05;;
6388;SDS011;3227;42.654;23.360;2023-02-28T11:50:42;32.20;;;18.03;;
6388;SDS011;3227;42.654;23.360;2023-02-28T11:53:18;29.27;;;17.50;;
6388;SDS011;3227;42.654;23.360;2023-02-28T11:55:51;36.60;;;18.77;;
6388;SDS011;3227;42.654;23.360;2023-02-28T11:58:29;28.13;;;17.17;;
6388;SDS011;3227;42.654;23.360;2023-02-28T12:01:06;34.13;;;17.33;;
6388;SDS011;3227;42.654;23.360;2023-02-28T12:03:45;26.63;;;14.57;;
6388;SDS011;3227;42.654;23.360;2023-02-28T12:06:25;34.13;;;15.80;;
6388;SDS011;3227;42.654;23.360;2023-02-28T12:09:11;30.73;;;15.37;;
6388;SDS011;3227;42.654;23.360;2023-02-28T12:11:51;31.98;;;16.63;;
6388;SDS011;3227;42.654;23.360;2023-02-28T12:14:42;28.57;;;15.33;;
6388;SDS011;3227;42.654;23.360;2023-02-28T12:17:32;32.20;;;15.83;;
6388;SDS011;3227;42.654;23.360;2023-02-28T12:20:13;31.80;;;17.65;;
6388;SDS011;3227;42.654;23.360;2023-02-28T12:22:50;35.20;;;17.17;;
6388;SDS011;3227;42.654;23.360;2023-02-28T12:28:15;26.37;;;15.53;;
6388;SDS011;3227;42.654;23.360;2023-02-28T12:30:49;27.20;;;14.73;;
6388;SDS011;3227;42.654;23.360;2023-02-28T12:33:21;29.02;;;15.48;;
6388;SDS011;3227;42.654;23.360;2023-02-28T12:35:51;24.00;;;13.93;;
6388;SDS011;3227;42.654;23.360;2023-02-28T12:38:23;29.20;;;16.13;;
6388;SDS011;3227;42.654;23.360;2023-02-28T12:40:54;33.72;;;17.10;;
6388;SDS011;3227;42.654;23.360;2023-02-28T12:43:27;29.58;;;16.25;;
6388;SDS011;3227;42.654;23.360;2023-02-28T12:45:59;29.90;;;13.93;;
6388;SDS011;3227;42.654;23.360;2023-02-28T12:48:33;27.20;;;14.63;;
6388;SDS011;3227;42.654;23.360;2023-02-28T12:51:05;26.70;;;13.27;;
6388;SDS011;3227;42.654;23.360;2023-02-28T12:53:38;29.20;;;16.20;;
6388;SDS011;3227;42.654;23.360;2023-02-28T12:56:22;28.35;;;16.40;;
6388;SDS011;3227;42.654;23.360;2023-02-28T12:59:01;30.35;;;15.73;;
6388;SDS011;3227;42.654;23.360;2023-02-28T13:01:49;26.80;;;15.30;;
6388;SDS011;3227;42.654;23.360;2023-02-28T13:04:36;32.67;;;16.60;;
6388;SDS011;3227;42.654;23.360;2023-02-28T13:10:06;25.47;;;13.43;;
6388;SDS011;3227;42.654;23.360;2023-02-28T13:12:35;33.50;;;15.33;;
6388;SDS011;3227;42.654;23.360;2023-02-28T13:15:07;27.00;;;14.20;;
6388;SDS011;3227;42.654;23.360;2023-02-28T13:17:44;27.80;;;15.35;;
6388;SDS011;3227;42.654;23.360;2023-02-28T13:20:17;27.20;;;13.37;;
6388;SDS011;3227;42.654;23.360;2023-02-28T13:22:46;27.13;;;13.68;;
6388;SDS011;3227;42.654;23.360;2023-02-28T13:31:24;27.80;;;14.20;;
6388;SDS011;3227;42.654;23.360;2023-02-28T13:36:41;29.27;;;11.93;;
6388;SDS011;3227;42.654;23.360;2023-02-28T13:42:22;29.63;;;12.00;;
6388;SDS011;3227;42.654;23.360;2023-02-28T13:47:53;27.13;;;13.00;;
6388;SDS011;3227;42.654;23.360;2023-02-28T13:50:27;25.37;;;12.30;;
6388;SDS011;3227;42.654;23.360;2023-02-28T13:53:03;29.95;;;13.05;;
6388;SDS011;3227;42.654;23.360;2023-02-28T13:55:51;27.27;;;11.47;;
6388;SDS011;3227;42.654;23.360;2023-02-28T13:58:33;23.57;;;10.90;;
6388;SDS011;3227;42.654;23.360;2023-02-28T14:01:15;28.13;;;13.30;;
6388;SDS011;3227;42.654;23.360;2023-02-28T14:03:58;22.07;;;11.97;;
6388;SDS011;3227;42.654;23.360;2023-02-28T14:06:37;29.33;;;12.80;;
6388;SDS011;3227;42.654;23.360;2023-02-28T14:09:16;22.75;;;12.90;;
6388;SDS011;3227;42.654;23.360;2023-02-28T14:11:49;26.83;;;12.50;;
6388;SDS011;3227;42.654;23.360;2023-02-28T14:17:21;31.87;;;12.47;;
6388;SDS011;3227;42.654;23.360;2023-02-28T14:19:50;29.65;;;14.75;;
6388;SDS011;3227;42.654;23.360;2023-02-28T14:22:21;28.33;;;14.93;;
6388;SDS011;3227;42.654;23.360;2023-02-28T14:25:07;28.65;;;14.40;;
6388;SDS011;3227;42.654;23.360;2023-02-28T14:27:38;31.35;;;14.43;;
6388;SDS011;3227;42.654;23.360;2023-02-28T14:30:25;24.38;;;13.27;;
6388;SDS011;3227;42.654;23.360;2023-02-28T14:36:09;25.27;;;12.10;;
6388;SDS011;3227;42.654;23.360;2023-02-28T14:38:46;24.77;;;11.50;;
6388;SDS011;3227;42.654;23.360;2023-02-28T14:41:22;23.92;;;13.20;;
6388;SDS011;3227;42.654;23.360;2023-02-28T14:43:53;23.87;;;11.90;;
6388;SDS011;3227;42.654;23.360;2023-02-28T14:46:22;22.70;;;11.97;;
6388;SDS011;3227;42.654;23.360;2023-02-28T14:48:52;26.83;;;11.57;;
6388;SDS011;3227;42.654;23.360;2023-02-28T14:51:21;27.25;;;13.40;;
6388;SDS011;3227;42.654;23.360;2023-02-28T14:53:50;25.33;;;13.75;;
6388;SDS011;3227;42.654;23.360;2023-02-28T14:56:23;25.85;;;13.20;;
6388;SDS011;3227;42.654;23.360;2023-02-28T14:58:53;21.90;;;11.20;;
6388;SDS011;3227;42.654;23.360;2023-02-28T15:01:21;27.63;;;13.70;;
6388;SDS011;3227;42.654;23.360;2023-02-28T15:03:56;24.38;;;13.40;;
6388;SDS011;3227;42.654;23.360;2023-02-28T15:06:28;25.58;;;12.90;;
6388;SDS011;3227;42.654;23.360;2023-02-28T15:09:08;27.17;;;13.13;;
6388;SDS011;3227;42.654;23.360;2023-02-28T15:11:38;26.42;;;13.77;;
6388;SDS011;3227;42.654;23.360;2023-02-28T15:14:05;21.23;;;11.13;;
6388;SDS011;3227;42.654;23.360;2023-02-28T15:16:34;30.40;;;12.65;;
6388;SDS011;3227;42.654;23.360;2023-02-28T15:19:05;26.30;;;12.87;;
6388;SDS011;3227;42.654;23.360;2023-02-28T15:21:41;23.63;;;11.10;;
6388;SDS011;3227;42.654;23.360;2023-02-28T15:24:14;23.13;;;10.93;;
6388;SDS011;3227;42.654;23.360;2023-02-28T15:26:49;24.53;;;10.70;;
6388;SDS011;3227;42.654;23.360;2023-02-28T15:29:21;20.17;;;9.10;;
6388;SDS011;3227;42.654;23.360;2023-02-28T15:31:52;23.80;;;9.70;;
6388;SDS011;3227;42.654;23.360;2023-02-28T15:34:25;18.87;;;9.20;;
6388;SDS011;3227;42.654;23.360;2023-02-28T15:36:57;25.80;;;10.60;;